Time;durP1;ratioP1;P1;durP2;ratioP2;P2;SDS_P1;SDS_P2;PMS_P1;PMS_P2;Temp;Humidity;BMP_temperature;BMP_pressure;BME280_temperature;BME280_humidity;BME280_pressure;Samples;Min_cycle;Max_cycle;Signal;HPM_P1;HPM_P2
2021/07/09 00:01:12;;;;;;;2.58;1.48;;;;;;;25.64;50.58;100806.88;4973826;28;20050;-78
2021/07/09 00:03:57;;;;;;;3.50;1.70;;;;;;;25.67;50.25;100798.47;4977001;28;20143;-76
2021/07/09 00:06:43;;;;;;;2.15;1.33;;;;;;;25.67;49.93;100792.13;4973955;28;20519;-77
2021/07/09 00:09:28;;;;;;;3.38;1.20;;;;;;;25.71;49.76;100781.72;4974632;28;20523;-76
2021/07/09 00:12:12;;;;;;;2.78;1.40;;;;;;;25.69;49.45;100771.00;4972366;28;20054;-77
2021/07/09 00:14:57;;;;;;;2.90;1.73;;;;;;;25.72;49.60;100783.31;4975167;28;20073;-76
2021/07/09 00:17:43;;;;;;;2.72;1.42;;;;;;;25.69;49.57;100773.00;4973783;28;20050;-77
2021/07/09 00:20:27;;;;;;;;;;;;;;;25.68;49.27;100791.72;4972520;28;20058;-76
2021/07/09 00:23:12;;;;;;;2.90;1.60;;;;;;;25.44;49.31;100788.00;4975430;28;20587;-77
2021/07/09 00:26:04;;;;;;;2.40;1.50;;;;;;;25.41;49.47;100788.78;4986543;28;20046;-75
2021/07/09 00:28:49;;;;;;;6.03;2.55;;;;;;;25.07;49.19;100783.19;4978291;28;20053;-76
2021/07/09 00:31:35;;;;;;;2.17;1.38;;;;;;;25.11;50.72;100788.72;4957178;28;20524;-75
2021/07/09 00:34:20;;;;;;;4.25;2.13;;;;;;;24.39;50.41;100779.34;4971003;28;20105;-75
2021/07/09 00:37:05;;;;;;;4.07;2.45;;;;;;;23.83;51.61;100756.22;4972152;28;20061;-75
2021/07/09 00:39:50;;;;;;;3.97;2.65;;;;;;;23.79;52.10;100754.66;4975669;28;20535;-75
2021/07/09 00:42:34;;;;;;;3.13;2.58;;;;;;;23.64;52.17;100756.72;4974034;28;20062;-75
2021/07/09 00:45:19;;;;;;;13.02;2.95;;;;;;;23.48;53.00;100769.44;4956342;28;20054;-75
2021/07/09 00:48:05;;;;;;;4.15;2.60;;;;;;;23.19;53.96;100775.06;4976623;28;20058;-75
2021/07/09 00:50:49;;;;;;;5.80;1.80;;;;;;;23.37;54.58;100775.00;4974653;28;20050;-75
2021/07/09 00:53:34;;;;;;;2.70;1.77;;;;;;;23.54;53.52;100778.97;4971934;28;20523;-75
2021/07/09 00:56:20;;;;;;;4.15;2.33;;;;;;;23.22;54.44;100781.78;4974587;28;20061;-75
2021/07/09 00:59:07;;;;;;;7.43;3.33;;;;;;;23.21;54.25;100785.75;4974696;28;20057;-76
2021/07/09 01:01:52;;;;;;;4.72;3.20;;;;;;;23.00;54.96;100779.06;4972782;28;20050;-75
2021/07/09 01:04:37;;;;;;;5.68;4.05;;;;;;;22.73;55.99;100779.84;4974944;28;20054;-75
2021/07/09 01:07:24;;;;;;;9.30;5.22;;;;;;;22.50;56.47;100772.66;4971487;28;20050;-75
2021/07/09 01:10:13;;;;;;;5.47;3.72;;;;;;;22.28;57.36;100776.63;4973271;28;20077;-75
2021/07/09 01:12:59;;;;;;;5.22;3.78;;;;;;;22.17;57.54;100779.34;4975165;28;20061;-75
2021/07/09 01:15:44;;;;;;;5.50;3.88;;;;;;;21.80;58.51;100770.50;4973234;28;20054;-75
2021/07/09 01:18:29;;;;;;;4.95;2.35;;;;;;;22.04;58.93;100792.00;4972866;28;20065;-75
2021/07/09 01:21:14;;;;;;;4.80;3.53;;;;;;;22.28;57.32;100790.47;4975782;28;20053;-76
2021/07/09 01:24:04;;;;;;;6.28;4.13;;;;;;;22.54;56.02;100786.56;4973441;28;20058;-76
2021/07/09 01:26:48;;;;;;;7.70;4.70;;;;;;;22.50;56.20;100780.97;4971830;28;20061;-75
2021/07/09 01:29:34;;;;;;;7.60;4.22;;;;;;;22.48;56.35;100771.50;4975612;28;20054;-76
2021/07/09 01:32:19;;;;;;;4.18;3.13;;;;;;;22.78;55.86;100780.25;4974861;28;20058;-75
2021/07/09 01:35:05;;;;;;;10.43;3.72;;;;;;;22.80;55.64;100786.19;4971027;28;20412;-76
2021/07/09 01:38:07;;;;;;;4.47;3.72;;;;;;;22.44;57.23;100784.56;4956399;29;20059;-75
2021/07/09 01:40:52;;;;;;;8.63;4.72;;;;;;;22.23;57.12;100787.28;4973356;28;20054;-75
2021/07/09 01:43:36;;;;;;;8.38;4.45;;;;;;;22.19;58.34;100787.28;4971248;28;20049;-75
2021/07/09 01:46:21;;;;;;;7.35;4.50;;;;;;;22.10;57.69;100789.63;4974620;28;20046;-75
2021/07/09 01:49:06;;;;;;;7.63;3.75;;;;;;;22.40;57.81;100794.84;4978528;28;20061;-75
2021/07/09 01:51:52;;;;;;;6.88;3.85;;;;;;;22.65;57.48;100792.91;4976210;28;20062;-75
2021/07/09 01:54:37;;;;;;;2.83;2.13;;;;;;;23.08;56.67;100792.91;4979306;28;20049;-75
2021/07/09 01:57:21;;;;;;;4.75;3.20;;;;;;;23.32;55.84;100794.84;4974605;28;20065;-75
2021/07/09 02:00:18;;;;;;;6.20;2.42;;;;;;;23.39;55.62;100797.59;4974941;28;20124;-75
2021/07/09 02:03:03;;;;;;;2.80;2.08;;;;;;;23.53;55.35;100791.25;4960303;28;20046;-76
2021/07/09 02:05:49;;;;;;;6.35;2.30;;;;;;;23.76;54.54;100786.03;4967566;28;20066;-75
2021/07/09 02:08:33;;;;;;;2.47;2.20;;;;;;;23.68;54.05;100773.34;4975332;28;20420;-75
2021/07/09 02:11:18;;;;;;;4.63;3.67;;;;;;;23.59;53.54;100779.34;4979739;28;20057;-75
2021/07/09 02:14:03;;;;;;;3.55;2.20;;;;;;;23.86;54.27;100774.06;4976866;28;20050;-75
2021/07/09 02:16:48;;;;;;;2.05;1.65;;;;;;;24.04;53.85;100782.31;4973211;28;20062;-76
2021/07/09 02:19:33;;;;;;;2.38;1.80;;;;;;;24.14;53.18;100778.69;4974539;28;20073;-75
2021/07/09 02:22:18;;;;;;;;;;;;;;;23.99;53.00;100780.75;4977944;28;20062;-75
2021/07/09 02:25:05;;;;;;;4.03;2.38;;;;;;;24.15;52.82;100766.38;4971329;28;21733;-75
2021/07/09 02:27:52;;;;;;;4.28;1.95;;;;;;;24.28;52.62;100761.94;4978790;28;20057;-75
2021/07/09 02:30:37;;;;;;;2.67;1.90;;;;;;;24.46;52.32;100770.16;4977764;28;20054;-76
2021/07/09 02:33:22;;;;;;;7.32;2.40;;;;;;;24.52;51.75;100768.53;4975247;28;20058;-75
2021/07/09 02:36:07;;;;;;;2.95;2.33;;;;;;;24.59;51.62;100763.69;4976578;28;20050;-74
2021/07/09 02:38:51;;;;;;;;;;;;;;;24.59;51.76;100771.25;4975993;28;20058;-75
2021/07/09 02:41:35;;;;;;;2.60;1.88;;;;;;;24.67;51.37;100773.59;4975671;28;20393;-75
2021/07/09 02:44:21;;;;;;;3.67;1.98;;;;;;;24.75;51.65;100779.06;4979894;28;20053;-75
2021/07/09 02:47:07;;;;;;;2.10;1.70;;;;;;;24.77;51.21;100785.03;4972376;28;20046;-75
2021/07/09 02:49:52;;;;;;;3.17;2.75;;;;;;;24.67;51.36;100781.13;4976028;28;20054;-76
2021/07/09 02:52:37;;;;;;;5.88;2.95;;;;;;;24.48;51.01;100773.34;4980167;28;20049;-75
2021/07/09 02:55:23;;;;;;;4.38;2.67;;;;;;;23.86;52.62;100769.31;4976094;28;20062;-76
2021/07/09 02:58:08;;;;;;;8.10;3.50;;;;;;;23.43;53.34;100768.66;4972911;28;20417;-75
2021/07/09 03:00:53;;;;;;;5.25;3.58;;;;;;;23.02;54.18;100757.25;4980344;28;20057;-75
2021/07/09 03:03:38;;;;;;;6.07;4.97;;;;;;;22.66;55.36;100766.75;4977587;28;20066;-76
2021/07/09 03:06:23;;;;;;;4.10;3.70;;;;;;;22.12;57.21;100765.09;4973639;28;20061;-76
2021/07/09 03:09:09;;;;;;;5.35;2.58;;;;;;;21.87;58.56;100764.19;4973763;28;20123;-75
2021/07/09 03:11:54;;;;;;;5.55;3.60;;;;;;;21.73;58.35;100749.13;4977578;28;20066;-75
2021/07/09 03:14:40;;;;;;;6.13;4.15;;;;;;;21.71;58.53;100759.00;4976290;28;20448;-75
2021/07/09 03:17:25;;;;;;;4.47;4.03;;;;;;;21.24;60.21;100766.28;4972111;28;20050;-76
2021/07/09 03:20:11;;;;;;;6.28;4.38;;;;;;;21.18;60.36;100761.50;4977463;28;20050;-75
2021/07/09 03:22:56;;;;;;;5.78;4.88;;;;;;;20.95;60.72;100761.72;4976289;28;20509;-75
2021/07/09 03:25:40;;;;;;;7.85;4.50;;;;;;;20.85;61.98;100768.75;4973136;28;20054;-75
2021/07/09 03:28:26;;;;;;;6.07;4.38;;;;;;;20.96;61.19;100771.59;4958984;28;20055;-76
2021/07/09 03:31:11;;;;;;;7.22;5.05;;;;;;;21.06;60.70;100768.13;4973178;28;20132;-75
2021/07/09 03:33:57;;;;;;;4.53;4.10;;;;;;;21.04;60.36;100762.16;4973818;28;20432;-76
2021/07/09 03:36:43;;;;;;;6.40;4.28;;;;;;;20.81;61.37;100775.44;4974232;28;20046;-75
2021/07/09 03:39:28;;;;;;;5.22;4.20;;;;;;;20.59;62.47;100790.25;4975765;28;20058;-75
2021/07/09 03:42:12;;;;;;;7.40;4.28;;;;;;;20.56;62.53;100779.97;4973429;28;20049;-76
2021/07/09 03:44:57;;;;;;;5.82;4.60;;;;;;;20.58;62.39;100770.09;4978216;28;20054;-76
2021/07/09 03:47:41;;;;;;;8.60;4.63;;;;;;;20.59;61.96;100781.94;4975237;28;20049;-75
2021/07/09 03:50:26;;;;;;;5.13;3.45;;;;;;;20.69;62.51;100778.47;4975445;28;20049;-75
2021/07/09 03:53:11;;;;;;;4.28;3.45;;;;;;;21.00;61.92;100777.94;4978264;28;20050;-75
2021/07/09 03:55:57;;;;;;;6.85;4.32;;;;;;;21.19;60.24;100783.22;4974722;28;20057;-76
2021/07/09 03:58:42;;;;;;;9.40;5.75;;;;;;;21.13;60.29;100786.75;4974129;28;20046;-74
2021/07/09 04:01:27;;;;;;;6.90;3.65;;;;;;;21.14;60.59;100791.91;4977626;28;20057;-75
2021/07/09 04:04:11;;;;;;;3.80;2.00;;;;;;;21.51;60.47;100782.63;4975970;28;20070;-75
2021/07/09 04:06:56;;;;;;;3.65;2.92;;;;;;;21.91;59.28;100784.38;4972442;28;20057;-75
2021/07/09 04:09:41;;;;;;;5.55;2.90;;;;;;;22.36;58.18;100780.19;4976999;28;20519;-75
2021/07/09 04:12:26;;;;;;;7.68;3.75;;;;;;;22.72;56.58;100781.03;4964387;28;20058;-75
2021/07/09 04:15:11;;;;;;;6.47;3.88;;;;;;;22.96;55.83;100774.69;4967025;28;20054;-75
2021/07/09 04:17:56;;;;;;;11.50;4.15;;;;;;;23.12;55.12;100775.06;4973999;28;20515;-75
2021/07/09 04:20:41;;;;;;;;;;;;;;;23.33;54.37;100775.03;4965989;28;20058;-75
2021/07/09 04:23:25;;;;;;;11.00;4.32;;;;;;;22.88;55.43;100779.44;4972828;28;19917;-76
2021/07/09 04:26:10;;;;;;;4.53;3.25;;;;;;;23.42;55.72;100783.72;4973603;28;20412;-76
2021/07/09 04:28:56;;;;;;;7.72;4.45;;;;;;;23.31;55.11;100787.72;4977446;28;20050;-76
2021/07/09 04:31:41;;;;;;;6.43;4.65;;;;;;;23.41;54.67;100790.47;4972110;28;20516;-76
2021/07/09 04:34:25;;;;;;;6.63;4.60;;;;;;;23.41;54.26;100798.81;4974207;28;20046;-76
2021/07/09 04:37:10;;;;;;;7.95;5.72;;;;;;;23.17;54.21;100798.81;4969804;28;20472;-77
2021/07/09 04:39:56;;;;;;;8.95;6.97;;;;;;;21.77;58.11;100797.00;4975431;28;20053;-75
2021/07/09 04:42:41;;;;;;;10.02;7.18;;;;;;;20.71;61.23;100801.00;4972751;28;20412;-76
2021/07/09 04:45:26;;;;;;;8.15;5.50;;;;;;;21.76;60.26;100800.16;4971789;28;20065;-75
2021/07/09 04:48:10;;;;;;;7.93;5.88;;;;;;;22.56;57.69;100804.34;4974271;28;20062;-75
2021/07/09 04:50:56;;;;;;;13.38;5.70;;;;;;;22.92;56.75;100813.53;4975223;28;20505;-75
2021/07/09 04:53:40;;;;;;;8.73;5.82;;;;;;;23.25;55.35;100814.28;4972828;28;20057;-76
2021/07/09 04:56:25;;;;;;;8.18;6.57;;;;;;;23.47;54.72;100815.84;4974402;28;20049;-76
2021/07/09 04:59:10;;;;;;;9.95;6.38;;;;;;;23.47;54.95;100815.84;4973315;28;20042;-77
2021/07/09 05:01:54;;;;;;;10.98;6.35;;;;;;;23.41;54.74;100814.66;4971298;28;20053;-76
2021/07/09 05:04:39;;;;;;;;;;;;;;;23.29;55.25;100809.53;4976276;28;20049;-76
2021/07/09 05:07:23;;;;;;;10.90;6.95;;;;;;;23.13;55.44;100811.91;4971418;28;19917;-76
2021/07/09 05:10:10;;;;;;;9.68;7.20;;;;;;;22.96;56.08;100808.75;4968291;28;20528;-75
2021/07/09 05:12:56;;;;;;;18.17;8.27;;;;;;;22.96;56.19;100803.22;4972998;28;20128;-75
2021/07/09 05:15:40;;;;;;;15.93;7.72;;;;;;;23.02;56.24;100815.50;4974307;28;20057;-75
2021/07/09 05:18:25;;;;;;;13.32;7.45;;;;;;;23.19;56.35;100818.66;4973164;28;20057;-75
2021/07/09 05:21:09;;;;;;;;;;;;;;;23.15;55.88;100821.44;4980619;28;20519;-75
2021/07/09 05:23:54;;;;;;;15.90;8.03;;;;;;;22.82;57.45;100822.63;4979072;28;19914;-75
2021/07/09 05:26:40;;;;;;;73.05;20.95;;;;;;;22.91;57.85;100817.47;4974484;28;20435;-75
2021/07/09 05:29:25;;;;;;;26.35;9.40;;;;;;;23.09;58.05;100811.13;4979466;28;20047;-75
2021/07/09 05:32:09;;;;;;;29.10;8.57;;;;;;;23.10;58.31;100821.06;4978886;28;20567;-79
2021/07/09 05:34:56;;;;;;;24.02;7.63;;;;;;;23.00;58.43;100819.88;4981360;28;20045;-79
2021/07/09 05:37:41;;;;;;;17.30;6.65;;;;;;;23.05;58.49;100822.25;4981102;28;20074;-79
2021/07/09 05:40:26;;;;;;;17.65;6.20;;;;;;;23.11;58.22;100814.31;4984319;28;20045;-79
2021/07/09 05:43:11;;;;;;;21.05;7.00;;;;;;;23.21;58.49;100811.50;4987599;28;20045;-79
2021/07/09 05:45:56;;;;;;;11.73;4.88;;;;;;;23.28;57.92;100807.94;4979186;28;20046;-80
2021/07/09 05:48:41;;;;;;;18.55;5.35;;;;;;;23.39;58.01;100819.81;4974163;28;20054;-79
2021/07/09 05:51:26;;;;;;;13.35;3.83;;;;;;;23.48;57.58;100811.09;4974327;28;20062;-79
2021/07/09 05:54:10;;;;;;;21.60;4.68;;;;;;;23.57;57.36;100811.50;4965918;28;20070;-78
2021/07/09 05:56:55;;;;;;;17.55;3.67;;;;;;;23.64;57.40;100803.91;4966650;28;20138;-78
2021/07/09 05:59:41;;;;;;;16.25;3.53;;;;;;;23.72;57.12;100811.00;4978072;28;20053;-78
2021/07/09 06:02:26;;;;;;;17.13;4.00;;;;;;;23.76;56.87;100806.25;4977541;28;20058;-78
2021/07/09 06:05:11;;;;;;;9.23;3.38;;;;;;;23.83;56.53;100805.41;4975429;28;20058;-78
2021/07/09 06:08:05;;;;;;;8.15;3.50;;;;;;;23.87;56.42;100803.44;4978040;28;20548;-78
2021/07/09 06:10:49;;;;;;;8.70;2.97;;;;;;;23.92;56.49;100810.56;4979214;28;20058;-79
2021/07/09 06:13:34;;;;;;;10.65;2.60;;;;;;;23.96;56.32;100808.56;4977236;28;20049;-78
2021/07/09 06:16:18;;;;;;;;;;;;;;;23.99;56.45;100814.09;4978724;28;20065;-78
2021/07/09 06:19:03;;;;;;;10.30;2.20;;;;;;;24.02;56.34;100806.94;4979806;28;20300;-78
2021/07/09 06:21:47;;;;;;;;;;;;;;;24.06;56.35;100810.50;4977971;28;20057;-79
2021/07/09 06:24:32;;;;;;;12.03;2.50;;;;;;;24.06;56.33;100804.94;4975796;28;19918;-78
2021/07/09 06:27:17;;;;;;;9.30;2.28;;;;;;;24.10;56.06;100816.81;4975410;28;20136;-79
2021/07/09 06:30:04;;;;;;;3.38;2.00;;;;;;;24.12;55.83;100811.66;4977938;28;20050;-79
2021/07/09 06:32:48;;;;;;;4.65;2.30;;;;;;;24.13;55.90;100816.00;4980851;28;20050;-79
2021/07/09 06:35:34;;;;;;;7.45;1.83;;;;;;;24.16;56.16;100824.34;4979167;28;20054;-80
2021/07/09 06:38:18;;;;;;;3.97;1.45;;;;;;;24.15;56.01;100816.38;4978454;28;20417;-79
2021/07/09 06:41:03;;;;;;;5.03;1.70;;;;;;;24.18;55.70;100810.03;4975593;28;20045;-79
2021/07/09 06:43:48;;;;;;;2.42;1.20;;;;;;;24.21;55.65;100818.38;4979758;28;20058;-79
2021/07/09 06:46:33;;;;;;;5.95;2.00;;;;;;;24.21;55.97;100812.03;4976820;28;20054;-79
2021/07/09 06:49:18;;;;;;;3.17;1.60;;;;;;;24.24;55.71;100816.75;4975632;28;20405;-79
2021/07/09 06:52:04;;;;;;;3.13;1.38;;;;;;;24.29;55.84;100817.13;4980040;28;20065;-79
2021/07/09 06:54:49;;;;;;;4.78;1.52;;;;;;;24.33;55.49;100822.66;4978253;28;20053;-79
2021/07/09 06:57:33;;;;;;;3.30;1.50;;;;;;;24.39;55.50;100823.03;4976177;28;20109;-79
2021/07/09 07:00:18;;;;;;;;;;;;;;;24.40;55.47;100819.84;4982302;28;20057;-80
2021/07/09 07:03:03;;;;;;;2.10;1.15;;;;;;;24.42;55.66;100813.88;4978907;28;19914;-79
2021/07/09 07:05:47;;;;;;;4.57;1.42;;;;;;;24.46;55.27;100812.66;4976006;28;20527;-79
2021/07/09 07:08:32;;;;;;;;;;;;;;;24.47;55.03;100825.38;4980738;28;20054;-78
2021/07/09 07:11:16;;;;;;;5.80;1.40;;;;;;;24.46;55.31;100821.00;4979241;28;19914;-79
2021/07/09 07:14:00;;;;;;;3.05;1.27;;;;;;;24.49;55.38;100819.38;4977409;28;20049;-79
2021/07/09 07:16:45;;;;;;;2.65;1.08;;;;;;;24.53;55.17;100826.50;4976219;28;20107;-79
2021/07/09 07:19:30;;;;;;;2.08;0.90;;;;;;;24.56;55.15;100813.78;4978316;28;20050;-79
2021/07/09 07:22:15;;;;;;;1.83;1.02;;;;;;;24.54;55.13;100822.53;4976298;28;20050;-79
2021/07/09 07:25:00;;;;;;;2.92;1.23;;;;;;;24.58;55.42;100817.72;4980840;28;20057;-80
2021/07/09 07:27:45;;;;;;;2.40;1.17;;;;;;;24.61;54.95;100822.50;4978336;28;20409;-79
2021/07/09 07:30:30;;;;;;;3.03;1.05;;;;;;;24.64;54.93;100815.31;4976044;28;20421;-79
2021/07/09 07:33:15;;;;;;;3.15;1.00;;;;;;;24.63;55.04;100819.31;4974703;28;20046;-79
2021/07/09 07:36:00;;;;;;;3.13;0.98;;;;;;;24.67;55.20;100820.88;4978011;28;20104;-79
2021/07/09 07:38:46;;;;;;;1.98;1.20;;;;;;;24.68;54.97;100816.91;4975699;28;20127;-79
2021/07/09 07:41:31;;;;;;;1.95;0.98;;;;;;;24.75;54.76;100815.22;4974803;28;20103;-79
2021/07/09 07:44:16;;;;;;;5.95;1.05;;;;;;;24.78;54.92;100822.78;4977704;28;20079;-79
2021/07/09 07:47:02;;;;;;;2.95;1.00;;;;;;;24.85;54.98;100825.47;4974797;28;20054;-79
2021/07/09 07:49:47;;;;;;;1.10;0.77;;;;;;;24.85;54.48;100822.69;4974842;28;20050;-77
2021/07/09 07:52:31;;;;;;;2.55;0.93;;;;;;;24.87;54.31;100826.69;4978840;28;20408;-78
2021/07/09 07:55:16;;;;;;;1.65;0.90;;;;;;;24.87;54.45;100823.91;4976358;28;20050;-79
2021/07/09 07:58:01;;;;;;;3.78;1.02;;;;;;;24.90;54.33;100825.06;4974817;28;20053;-79
2021/07/09 08:00:46;;;;;;;4.03;1.20;;;;;;;24.95;54.37;100821.84;4978524;28;20520;-79
2021/07/09 08:03:31;;;;;;;2.15;1.20;;;;;;;24.97;54.21;100819.47;4976898;28;20058;-79
2021/07/09 08:06:15;;;;;;;2.08;0.65;;;;;;;24.99;54.37;100811.50;4974540;28;20053;-78
2021/07/09 08:09:00;;;;;;;1.60;0.80;;;;;;;25.05;54.23;100821.75;4978148;28;20456;-79
2021/07/09 08:11:45;;;;;;;2.85;0.80;;;;;;;25.09;53.99;100816.19;4977084;28;20408;-78
2021/07/09 08:14:31;;;;;;;2.38;0.80;;;;;;;25.10;53.76;100814.97;4974979;28;20428;-78
2021/07/09 08:17:15;;;;;;;2.63;1.00;;;;;;;25.14;53.89;100821.31;4973634;28;20062;-79
2021/07/09 08:20:00;;;;;;;3.95;1.63;;;;;;;25.17;53.65;100823.25;4977524;28;20066;-79
2021/07/09 08:22:45;;;;;;;2.60;1.10;;;;;;;25.19;53.63;100818.06;4975289;28;20053;-78
2021/07/09 08:25:30;;;;;;;4.68;1.40;;;;;;;25.22;53.80;100817.25;4978225;28;20057;-78
2021/07/09 08:28:15;;;;;;;1.85;0.90;;;;;;;25.26;53.79;100822.78;4977052;28;20049;-78
2021/07/09 08:31:00;;;;;;;4.82;0.88;;;;;;;25.26;53.41;100826.34;4975319;28;20058;-78
2021/07/09 08:33:45;;;;;;;0.88;0.70;;;;;;;25.29;53.59;100828.31;4978630;28;20054;-78
2021/07/09 08:36:30;;;;;;;1.33;0.63;;;;;;;25.34;53.35;100827.88;4975297;28;20061;-78
2021/07/09 08:39:16;;;;;;;2.17;0.85;;;;;;;25.37;53.45;100829.81;4975504;28;20046;-78
2021/07/09 08:42:01;;;;;;;3.53;1.05;;;;;;;25.40;53.44;100831.75;4973123;28;20061;-79
2021/07/09 08:44:46;;;;;;;5.18;1.17;;;;;;;25.43;52.88;100839.31;4976314;28;20050;-78
2021/07/09 08:47:33;;;;;;;1.83;0.90;;;;;;;25.44;53.24;100837.31;4974338;28;20053;-78
2021/07/09 08:50:18;;;;;;;2.38;0.82;;;;;;;25.47;52.88;100845.63;4973465;28;20413;-80
2021/07/09 08:53:04;;;;;;;2.42;0.80;;;;;;;25.50;52.63;100844.78;4979703;28;20054;-79
2021/07/09 08:55:48;;;;;;;1.67;0.82;;;;;;;25.53;52.84;100848.75;4974246;28;20055;-79
2021/07/09 08:58:33;;;;;;;2.72;0.77;;;;;;;25.55;52.45;100843.56;4977967;28;20054;-79
2021/07/09 09:01:18;;;;;;;1.40;0.80;;;;;;;25.57;52.21;100846.75;4977166;28;20105;-79
2021/07/09 09:04:07;;;;;;;1.52;0.63;;;;;;;25.60;52.22;100847.94;4975253;28;20058;-80
2021/07/09 09:07:03;;;;;;;2.67;0.90;;;;;;;25.62;52.11;100839.94;4972173;28;20049;-81
2021/07/09 09:09:51;;;;;;;1.52;0.73;;;;;;;25.64;51.99;100851.47;4976762;28;20069;-79
2021/07/09 09:12:38;;;;;;;2.92;0.73;;;;;;;25.64;51.93;100865.38;4973799;28;20050;-79
2021/07/09 09:15:24;;;;;;;3.20;0.50;;;;;;;25.64;51.50;100859.81;4978048;28;20061;-79
2021/07/09 09:18:21;;;;;;;0.90;0.70;;;;;;;25.70;51.23;100860.94;4973641;28;20047;-79
2021/07/09 09:21:11;;;;;;;2.63;0.40;;;;;;;25.72;51.33;100864.09;4974956;28;20523;-79
2021/07/09 09:23:56;;;;;;;1.50;0.60;;;;;;;25.71;51.18;100854.94;4978298;28;20046;-79
2021/07/09 09:26:53;;;;;;;2.53;0.52;;;;;;;25.74;50.73;100859.69;4975100;28;20046;-79
2021/07/09 09:29:39;;;;;;;2.25;0.70;;;;;;;25.73;50.50;100860.09;4973218;28;20049;-79
2021/07/09 09:32:23;;;;;;;2.40;0.57;;;;;;;25.75;50.62;100866.06;4978108;28;20049;-79
2021/07/09 09:35:09;;;;;;;2.97;0.70;;;;;;;25.76;50.37;100864.84;4979001;28;20050;-79
2021/07/09 09:38:00;;;;;;;1.85;0.50;;;;;;;25.78;50.51;100873.59;4974290;28;20520;-79
2021/07/09 09:40:46;;;;;;;1.48;0.40;;;;;;;25.78;50.42;100865.22;4979544;28;20045;-79
2021/07/09 09:43:32;;;;;;;1.95;0.90;;;;;;;25.81;50.48;100875.53;4975707;28;20531;-79
2021/07/09 09:46:26;;;;;;;1.40;0.60;;;;;;;25.80;50.35;100876.75;4973471;28;20412;-80
2021/07/09 09:49:16;;;;;;;1.55;0.45;;;;;;;25.83;50.13;100884.28;4977426;28;20050;-79
2021/07/09 09:52:01;;;;;;;0.63;0.57;;;;;;;25.83;50.05;100890.66;4975210;28;20042;-79
2021/07/09 09:54:46;;;;;;;2.65;0.50;;;;;;;25.83;50.28;100884.28;4973489;28;20169;-79
2021/07/09 09:57:32;;;;;;;1.35;0.75;;;;;;;25.86;50.28;100883.44;4977328;28;20051;-79
2021/07/09 10:00:16;;;;;;;0.73;0.40;;;;;;;25.89;50.41;100885.41;4975350;28;20057;-79
2021/07/09 10:03:04;;;;;;;2.42;0.57;;;;;;;25.91;50.22;100891.34;4973510;28;20062;-79
2021/07/09 10:05:50;;;;;;;0.93;0.70;;;;;;;25.91;50.11;100880.19;4977095;28;20050;-79
2021/07/09 10:08:36;;;;;;;1.85;0.68;;;;;;;25.92;50.01;100882.56;4979109;28;20046;-79
2021/07/09 10:11:23;;;;;;;2.10;0.52;;;;;;;25.94;49.95;100871.00;4977100;28;20049;-79
2021/07/09 10:14:14;;;;;;;1.60;0.65;;;;;;;25.96;50.01;100871.38;4980960;28;20046;-80
2021/07/09 10:17:04;;;;;;;1.17;0.90;;;;;;;26.00;49.86;100863.78;4980212;28;20053;-80
2021/07/09 10:19:52;;;;;;;1.05;0.63;;;;;;;26.01;49.58;100859.00;4978759;28;20046;-79
2021/07/09 10:22:37;;;;;;;0.68;0.50;;;;;;;26.01;49.72;100856.97;4981701;28;20069;-80
2021/07/09 10:25:24;;;;;;;6.32;0.60;;;;;;;25.99;49.88;100842.69;4981602;28;20053;-79
2021/07/09 10:28:11;;;;;;;0.80;0.50;;;;;;;26.05;49.62;100856.94;4976927;28;20539;-79
2021/07/09 10:30:56;;;;;;;1.15;0.63;;;;;;;26.06;49.67;100852.97;4981184;28;20053;-79
2021/07/09 10:33:41;;;;;;;1.80;0.70;;;;;;;26.06;49.37;100853.72;4983721;28;20058;-79
2021/07/09 10:36:29;;;;;;;1.02;0.45;;;;;;;26.09;49.22;100847.34;4977955;28;20042;-79
2021/07/09 10:39:14;;;;;;;3.13;0.50;;;;;;;26.07;49.29;100855.31;4976160;28;20061;-78
2021/07/09 10:42:17;;;;;;;4.68;0.57;;;;;;;26.11;49.01;100849.72;4976176;28;20511;-78
2021/07/09 10:45:28;;;;;;;1.17;0.45;;;;;;;26.13;48.79;100856.44;4970839;28;20057;-77
2021/07/09 10:48:17;;;;;;;1.05;0.60;;;;;;;26.17;48.93;100856.38;4973606;28;20046;-77
2021/07/09 10:51:01;;;;;;;1.85;0.63;;;;;;;26.18;49.16;100855.97;4973047;28;20045;-77
2021/07/09 10:53:46;;;;;;;3.22;0.60;;;;;;;26.19;49.11;100851.97;4978681;28;20050;-78
2021/07/09 10:56:32;;;;;;;1.15;0.60;;;;;;;26.21;48.91;100857.16;4976753;28;20416;-78
2021/07/09 10:59:17;;;;;;;1.67;0.70;;;;;;;26.21;48.83;100849.53;4973576;28;20046;-77
2021/07/09 11:02:03;;;;;;;1.23;0.70;;;;;;;26.25;48.91;100852.34;4979378;28;20061;-77
2021/07/09 11:04:47;;;;;;;;;;;;;;;26.34;48.55;100858.97;4971501;28;20046;-77
2021/07/09 11:07:32;;;;;;;1.15;0.63;;;;;;;26.33;48.77;100854.59;4972691;28;19926;-78
2021/07/09 11:11:16;;;;;;;2.28;1.02;;;;;;;26.37;48.74;100855.34;4975012;28;20054;-77
2021/07/09 11:14:09;;;;;;;1.30;0.65;;;;;;;26.39;48.81;100850.13;4929622;29;20043;-77
2021/07/09 11:17:10;;;;;;;30.35;2.45;;;;;;;26.37;48.85;100846.97;4933067;29;20051;-76
2021/07/09 11:20:16;;;;;;;2.38;1.25;;;;;;;26.43;48.49;100844.50;4973438;28;20042;-77
2021/07/09 11:23:05;;;;;;;1.13;1.02;;;;;;;26.39;48.68;100839.00;4974872;28;20045;-79
2021/07/09 11:25:50;;;;;;;2.50;0.70;;;;;;;26.39;48.78;100839.00;4974878;28;20061;-78
2021/07/09 11:28:35;;;;;;;5.28;0.70;;;;;;;26.38;48.87;100837.41;4971537;28;20066;-78
2021/07/09 11:31:30;;;;;;;;;;;;;;;26.43;48.50;100849.28;4976375;28;20050;-79
2021/07/09 11:34:16;;;;;;;0.57;0.50;;;;;;;26.43;48.54;100841.72;4972225;28;20501;-78
2021/07/09 11:37:04;;;;;;;2.70;1.05;;;;;;;26.45;48.80;100841.31;4970535;28;20049;-78
2021/07/09 11:39:56;;;;;;;1.23;0.50;;;;;;;26.49;48.89;100842.03;4977269;28;20522;-77
2021/07/09 11:42:41;;;;;;;0.65;0.40;;;;;;;26.47;49.06;100838.88;4973418;28;20101;-78
2021/07/09 11:45:29;;;;;;;2.38;0.68;;;;;;;26.50;48.76;100840.84;4971953;28;20531;-77
2021/07/09 11:48:15;;;;;;;1.70;0.80;;;;;;;26.50;48.61;100835.25;4976510;28;20049;-77
2021/07/09 11:51:05;;;;;;;1.65;0.88;;;;;;;26.50;48.80;100838.84;4974188;28;20053;-77
2021/07/09 11:54:07;;;;;;;1.65;0.55;;;;;;;26.54;48.72;100834.00;4977634;28;20057;-76
2021/07/09 11:56:54;;;;;;;0.90;0.65;;;;;;;26.55;48.61;100837.56;4972683;28;20539;-77
2021/07/09 11:59:41;;;;;;;1.45;0.80;;;;;;;26.57;48.33;100832.34;4971034;28;20058;-77
2021/07/09 12:02:27;;;;;;;1.40;0.57;;;;;;;26.55;48.47;100832.78;4976812;28;20045;-77
2021/07/09 12:05:15;;;;;;;2.60;0.88;;;;;;;26.55;48.57;100830.00;4974012;28;20049;-77
2021/07/09 12:08:01;;;;;;;1.38;0.80;;;;;;;26.60;48.49;100831.50;4972639;28;20050;-77
2021/07/09 12:10:46;;;;;;;1.65;1.00;;;;;;;26.57;48.46;100840.72;4978226;28;20053;-78
2021/07/09 12:13:31;;;;;;;0.60;0.60;;;;;;;26.59;48.67;100827.13;4973732;28;20785;-77
2021/07/09 12:16:15;;;;;;;;;;;;;;;26.62;48.36;100835.44;4973886;28;20058;-77
2021/07/09 12:19:03;;;;;;;1.20;0.57;;;;;;;26.59;48.62;100827.13;4975873;28;19913;-74
2021/07/09 12:21:54;;;;;;;1.17;0.77;;;;;;;26.65;48.43;100836.63;4974525;28;20045;-74
2021/07/09 12:24:49;;;;;;;3.05;0.80;;;;;;;26.62;48.47;100834.66;4968476;28;20521;-74
2021/07/09 12:27:36;;;;;;;2.22;0.80;;;;;;;26.64;48.14;100826.66;4973444;28;20041;-75
2021/07/09 12:30:24;;;;;;;5.72;0.73;;;;;;;26.65;48.02;100820.66;4971884;28;20049;-74
2021/07/09 12:33:14;;;;;;;1.35;0.82;;;;;;;26.67;48.08;100826.59;4971455;28;20057;-74
2021/07/09 12:36:02;;;;;;;3.00;0.98;;;;;;;26.65;46.36;100826.25;4959099;28;20409;-74
2021/07/09 12:38:59;;;;;;;1.80;0.95;;;;;;;26.66;47.38;100822.25;4970630;28;20049;-74
2021/07/09 12:41:44;;;;;;;3.00;0.80;;;;;;;26.71;46.04;100820.97;4974766;28;20045;-74
2021/07/09 12:44:29;;;;;;;0.50;0.50;;;;;;;26.75;47.03;100824.50;4970955;28;20053;-74
2021/07/09 12:47:14;;;;;;;1.42;0.50;;;;;;;26.70;47.13;100824.97;4968853;28;20050;-75
2021/07/09 12:50:17;;;;;;;0.85;0.65;;;;;;;26.61;47.25;100821.94;4970101;28;20131;-75
2021/07/09 12:53:29;;;;;;;1.02;0.60;;;;;;;26.61;47.18;100824.72;4973961;28;20058;-75
2021/07/09 12:56:18;;;;;;;3.88;0.60;;;;;;;26.56;46.91;100825.22;4968686;28;20069;-75